Last 100 IPOs

Company Symbol Industry Offer Date Shares (millions) Offer Price 1st Day Close Current Price Return SCOOP Rating
Akcea Therapeutics AKCA Health Care 7/14/2017 15.6 $8.00 $9.48 $11.11 38.88% S/O
Co-Diagnostics CODX Health Care 7/12/2017 1.2 $6.00 $5.81 $4.94 -17.67% S/O
Byline Bancorp BY Financials 6/30/2017 5.7 $19.00 $20.05 $21.07 10.89% S/O
Aileron Therapeutics ALRN Health Care 6/29/2017 3.8 $15.00 $10.80 $13.00 -13.33% S/O
Blue Apron Holdings APRN Consumer Goods 6/29/2017 30.0 $10.00 $10.00 $6.65 -33.50% S/O
Dova Pharmaceuticals DOVA Health Care 6/29/2017 4.4 $17.00 $19.81 $23.07 35.71% S/O
Avenue Therapeutics ATXI Health Care 6/27/2017 5.5 $6.00 $8.25 $7.27 21.17% S/O
Esquire Financial Holdings ESQ Financials 6/27/2017 2.4 $14.00 $15.25 $14.65 4.64% S/O
Granite Point Mortgage Trust GPMT Financials 6/23/2017 10.0 $19.50 $19.00 $19.05 -2.31% S/O
Altice USA ATUS Telecommunications 6/22/2017 63.9 $30.00 $32.71 $31.64 5.47% S/O
Safety, Income and Growth SAFE Financials 6/22/2017 10.3 $20.00 $19.00 $19.50 -2.50% S/O
SG Blocks SGBX Industrials 6/22/2017 1.5 $5.00 $4.92 $4.35 -13.00% S/O
Athenex ATNX Health Care 6/14/2017 6.0 $11.00 $12.56 $18.52 68.36% S/O
Plymouth Industrial REIT PLYM Financials 6/9/2017 2.9 $19.00 $18.39 $17.25 -9.21% S/O
ShotSpotter SSTI Technology 6/7/2017 2.8 $11.00 $14.38 $13.04 18.55% S/O
Appian APPN Technology 5/25/2017 6.3 $12.00 $15.01 $20.97 74.75% S/O
WideOpenWest WOW Telecommunications 5/25/2017 18.2 $17.00 $16.50 $16.67 -1.94% S/O
SMART Global Holdings SGH Technology 5/24/2017 5.3 $11.00 $13.45 $16.82 52.91% S/O
Bright Scholar Education Holdings BEDU Consumer Services 5/18/2017 15.0 $10.50 $13.40 $13.20 25.71% S/O
G1 Therapeutics GTHX Health Care 5/17/2017 7.0 $15.00 $15.00 $15.40 2.67% S/O
A.S.V. ASV Industrials 5/12/2017 3.8 $7.00 $7.85 $7.94 13.43% S/O
Gardner Denver Holdings GDI Consumer Goods 5/12/2017 41.3 $20.00 $21.10 $23.42 17.10% S/O
Solaris Oilfield Infrastructure SOI Oil & Gas 5/12/2017 10.1 $12.00 $11.55 $13.86 15.50% S/O
Veritone VERI Technology 5/12/2017 2.5 $15.00 $13.07 $10.60 -29.33% S/O
Five Point Holdings FPH Financials 5/10/2017 21.0 $14.00 $15.04 $14.47 3.36% S/O
Guaranty Bancshares GNTY Financials 5/9/2017 2.0 $27.00 $30.10 $30.78 14.00% S/O
KKR Real Estate Finance Trust KREF Financials 5/5/2017 10.3 $20.50 $22.13 $21.06 2.73% S/O
Ovid Therapeutics OVID Health Care 5/5/2017 5.0 $15.00 $12.25 $9.43 -37.13% S/O
Antero Resources Midstream Management AMGP Oil & Gas 5/4/2017 37.3 $23.50 $22.00 $21.38 -9.02% S/O
Biohaven Pharmaceutical Holding BHVN Health Care 5/4/2017 9.9 $17.00 $17.50 $24.74 45.53% S/O
UroGen Pharma Ltd. URGN Health Care 5/4/2017 4.5 $13.00 $13.98 $18.12 39.38% S/O
Carvana CVNA Consumer Services 4/28/2017 15.0 $15.00 $11.10 $22.26 48.40% S/O
China Rapid Finance Limited XRF Financials 4/28/2017 10.0 $6.00 $6.40 $6.96 16.00% S/O
Cloudera CLDR Technology 4/28/2017 15.0 $15.00 $18.10 $18.78 25.20% S/O
Emerald Expositions Events EEX Consumer Services 4/28/2017 15.5 $17.00 $19.50 $22.27 31.00% S/O
NCS Multistage Holdings NCSM Oil & Gas 4/28/2017 9.5 $17.00 $19.50 $23.18 36.35% S/O
Zymeworks ZYME Health Care 4/28/2017 4.5 $13.00 $13.00 $8.09 -37.77% S/O
Floor & Decor Holdings FND Consumer Goods 4/27/2017 8.8 $21.00 $32.05 $40.96 95.05% S/O
Select Energy Services WTTR Oil & Gas 4/21/2017 8.7 $14.00 $14.02 $14.92 6.57% S/O
Cadence Bancorporation CADE Financials 4/13/2017 7.5 $20.00 $0.00 $21.98 9.90% S/O
Tocagen TOCA Health Care 4/13/2017 8.5 $10.00 $12.45 $10.26 2.60% S/O
Warrior Met Coal HCC Basic Materials 4/13/2017 16.7 $19.00 $18.00 $19.55 2.89% S/O
Yext YEXT Technology 4/13/2017 10.5 $11.00 $13.41 $14.46 31.45% S/O
Netshoes (Cayman) Ltd. NETS Consumer Goods 4/12/2017 8.3 $18.00 $16.10 $19.23 6.83% S/O
Azul S.A. AZUL Consumer Services 4/11/2017 28.5 $20.06 $21.50 $25.16 25.42% S/O
Okta OKTA Technology 4/7/2017 11.0 $17.00 $23.51 $24.15 42.06% S/O
Elevate Credit ELVT Financials 4/6/2017 12.4 $6.50 $7.76 $8.59 32.15% S/O
Schneider National SNDR Industrials 4/6/2017 29.0 $19.00 $19.00 $20.52 8.00% S/O
Hess Midstream Partners LP HESM Oil & Gas 4/5/2017 14.8 $23.00 $25.60 $21.73 -5.52% S/O
Alteryx AYX Technology 3/24/2017 9.0 $14.00 $15.50 $22.45 60.36% S/O
MuleSoft MULE Technology 3/17/2017 13.0 $17.00 $24.75 $26.05 53.24% S/O
ProPetro Holding PUMP Oil & Gas 3/17/2017 25.0 $14.00 $14.50 $13.84 -1.14% S/O
Canada Goose Holdings GOOS Consumer Goods 3/16/2017 20.0 $12.78 $16.08 $19.45 52.19% S/O
Ardagh Group S.A. ARD Industrials 3/15/2017 16.2 $19.00 $22.91 $22.36 17.68% S/O
Presidio, Inc. PSDO Technology 3/10/2017 16.7 $14.00 $14.25 $14.32 2.29% S/O
BeyondSpring BYSI Health Care 3/9/2017 0.2 $20.00 $16.80 $40.21 101.05% S/O
J.Jill JILL Consumer Goods 3/9/2017 11.7 $13.00 $12.65 $12.45 -4.23% S/O
Snap SNAP Technology 3/2/2017 200.0 $17.00 $24.48 $14.97 -11.94% S/O
Hamilton Lane HLNE Financials 3/1/2017 11.9 $16.00 $18.02 $22.27 39.19% S/O
Clipper Realty CLPR Financials 2/10/2017 5.7 $13.50 $13.50 $11.97 -11.33% S/O
Foundation Building Materials FBM Consumer Services 2/10/2017 12.8 $14.00 $15.50 $12.03 -14.07% S/O
Sachem Capital SACH Financials 2/10/2017 2.6 $5.00 $5.04 $4.22 -15.60% S/O
Kimbell Royalty Partners, LP KRP Oil & Gas 2/3/2017 5.0 $18.00 $20.64 $16.37 -9.06% S/O
Ramaco Resources METC Basic Materials 2/3/2017 6.0 $13.50 $13.55 $7.11 -47.33% S/O
Invitation Homes INVH Financials 2/1/2017 77.0 $20.00 $20.00 $21.68 8.40% S/O
Laureate Education LAUR Consumer Services 2/1/2017 35.0 $14.00 $13.25 $17.28 23.43% S/O
Jagged Peak Energy JAG Oil & Gas 1/27/2017 31.6 $15.00 $14.33 $13.97 -6.87% S/O
JELD-WEN Holding JELD Basic Materials 1/27/2017 25.0 $23.00 $26.12 $31.93 38.83% S/O
Jounce Therapeutics JNCE Health Care 1/27/2017 6.5 $16.00 $17.25 $13.30 -16.88% S/O
REV Group REVG Consumer Goods 1/27/2017 12.5 $22.00 $25.00 $27.18 23.55% S/O
AnaptysBio ANAB Health Care 1/26/2017 5.0 $15.00 $17.00 $27.23 81.53% S/O
ObsEva SA OBSV Health Care 1/26/2017 6.5 $15.00 $11.65 $8.48 -43.47% S/O
Keane Group FRAC Oil & Gas 1/20/2017 26.8 $19.00 $21.65 $16.47 -13.32% S/O
trivago N.V. TRVG Technology 12/16/2016 26.1 $11.00 $11.85 $24.07 118.82% S/O
WildHorse Resource Development WRD Oil & Gas 12/14/2016 27.5 $15.00 $15.06 $12.33 -17.80% S/O
Athene Holding Ltd. ATH Financials 12/9/2016 27.0 $40.00 $44.05 $50.10 25.25% S/O
Ichor Holdings, Ltd. ICHR Technology 12/9/2016 5.9 $9.00 $9.77 $23.70 163.33% S/O
SenesTech SNES Basic Materials 12/8/2016 1.9 $8.00 $8.16 $4.16 -48.00% S/O
Polar Power POLA Industrials 12/7/2016 2.4 $7.00 $9.00 $5.76 -17.71% S/O
Innovative Industrial Properties IIPR Financials 12/1/2016 3.4 $20.00 $19.15 $16.30 -18.50% S/O
Smart Sand SND Basic Materials 11/4/2016 11.7 $11.00 $10.99 $7.87 -28.45% S/O
GDS Holdings Ltd. GDS Technology 11/2/2016 19.3 $10.00 $10.41 $9.74 -2.60% S/O
Acushnet Holdings GOLF Consumer Goods 10/28/2016 19.3 $17.00 $17.95 $20.34 19.65% S/O
BlackLine BL Technology 10/28/2016 8.6 $17.00 $23.70 $37.71 121.82% S/O
Quantenna Communications QTNA Technology 10/28/2016 6.7 $16.00 $15.50 $19.43 21.44% S/O
Myovant Sciences Ltd. MYOV Health Care 10/27/2016 14.5 $15.00 $13.26 $10.60 -29.33% S/O
ZTO Express (Cayman) ZTO Industrials 10/27/2016 72.1 $19.50 $16.57 $15.56 -20.21% S/O
Ra Pharmaceuticals RARX Health Care 10/26/2016 7.1 $13.00 $13.00 $15.12 16.31% S/O
Forterra FRTA Industrials 10/20/2016 18.4 $18.00 $16.50 $8.69 -51.72% S/O
iRhythm Technologies IRTC Health Care 10/20/2016 6.3 $17.00 $26.05 $41.56 144.47% S/O
CRISPR Therapeutics AG CRSP Health Care 10/19/2016 4.0 $14.00 $14.00 $16.89 20.64% S/O
Mammoth Energy Services TUSK Oil & Gas 10/14/2016 7.8 $15.00 $13.26 $15.86 5.73% S/O
Azure Power Global AZRE Utilities 10/12/2016 3.4 $18.00 $14.60 $16.39 -8.94% S/O
Extraction Oil & Gas XOG Oil & Gas 10/12/2016 33.3 $19.00 $21.85 $13.01 -31.53% S/O
AzurRx BioPharma AZRX Health Care 10/11/2016 1.0 $5.50 $4.98 $3.25 -40.91% S/O
Camping World Holdings CWH Consumer Services 10/7/2016 11.4 $22.00 $22.50 $32.68 48.55% S/O
Everspin Technologies MRAM Technology 10/7/2016 5.0 $8.00 $8.02 $21.91 173.88% S/O
Advanced Disposal Services ADSW Consumer Services 10/6/2016 19.3 $18.00 $0.00 $23.42 30.11% S/O
AquaVenture Holdings WAAS Consumer Goods 10/6/2016 6.5 $18.00 $21.95 $15.50 -13.89% S/O
Coupa Software COUP Technology 10/6/2016 7.4 $18.00 $0.00 $30.22 67.89% S/O